METAR Data
IDs: Format: Raw Decoded Include TAF

Data at: 0444 UTC 26 Sep 2018

KMQI 260425Z AUTO 18006KT 10SM SCT010 25/24 A3010 RMK AO2 T02480237
KMQI 260405Z AUTO 17006KT 10SM SCT010 BKN015 25/24 A3010 RMK AO2 T02500238
KMQI 260345Z AUTO 15007KT 10SM SCT015 25/24 A3010 RMK AO2 T02500236
KMQI 260325Z AUTO 15006KT 10SM CLR 25/24 A3010 RMK AO2 T02500236
KMQI 260305Z AUTO 14006KT 10SM SCT015 25/24 A3011 RMK AO2 T02500236
KMQI 260245Z AUTO 13006KT 10SM SCT015 25/24 A3011 RMK AO2 T02500235
KMQI 260225Z AUTO 14007KT 10SM SCT019 SCT025 25/24 A3011 RMK AO2 T02500236
KMQI 260205Z AUTO 13007KT 10SM BKN023 25/24 A3011 RMK AO2 T02510236
KMQI 260145Z AUTO 13005KT 10SM BKN023 25/24 A3012 RMK AO2 T02500236
KMQI 260125Z AUTO 12007KT 10SM CLR 25/24 A3012 RMK AO2 T02480235
KMQI 260105Z AUTO 10005KT 10SM CLR 25/23 A3013 RMK AO2 T02460227
KMQI 260045Z AUTO 09003KT 10SM SCT042 25/23 A3013 RMK AO2 T02480225
KMQI 260025Z AUTO 10004KT 10SM SCT032 BKN042 25/22 A3013 RMK AO2 T02480222
KMQI 260005Z AUTO 00000KT 10SM SCT040 25/22 A3013 RMK AO2 T02460220
KMQI 252345Z AUTO 13004KT 10SM SCT033 25/22 A3012 RMK AO2 T02450220
KMQI 252325Z AUTO 14005KT 10SM SCT011 SCT016 SCT030 25/22 A3012 RMK AO2 T02470223
KMQI 252305Z AUTO 15007KT 10SM SCT011 BKN016 BKN034 26/24 A3013 RMK AO2 T02560237
KMQI 252245Z AUTO 12005KT 10SM SCT025 SCT034 SCT060 26/24 A3013 RMK AO2 T02550238
KMQI 252225Z AUTO 10005KT 10SM SCT023 SCT028 SCT036 26/24 A3013 RMK AO2 T02580240
KMQI 252205Z AUTO 13007KT 10SM SCT029 SCT038 26/24 A3013 RMK AO2 T02600240
KMQI 252145Z AUTO 14005KT 10SM SCT017 SCT027 26/24 A3014 RMK AO2 T02610240
KMQI 252125Z AUTO 14006KT 10SM SCT017 SCT025 BKN048 26/24 A3014 RMK AO2 T02630239
KMQI 252105Z AUTO 15005KT 10SM SCT012 SCT037 OVC048 26/24 A3014 RMK AO2 T02610241
KMQI 252045Z AUTO 13006KT 10SM BKN012 BKN018 OVC048 26/24 A3014 RMK AO2 T02600241
KMQI 252025Z AUTO 13009KT 7SM OVC012 26/24 A3014 RMK AO2 T02600240
KMQI 252005Z AUTO 12006G09KT 7SM OVC012 26/24 A3015 RMK AO2 T02620240
KMQI 251945Z AUTO 14007KT 10SM 27/25 A3014 RMK AO2 T02730245
KMQI 251920Z AUTO 12008KT 7SM OVC008 26/24 A3014 RMK AO2 P0002 T02600241
KMQI 251900Z AUTO 13008KT 7SM OVC008 26/24 A3015 RMK AO2 T02610244
KMQI 251840Z AUTO 12008G15KT 7SM OVC008 26/25 A3016 RMK AO2 T02610247
KMQI 251820Z AUTO 13007KT 7SM SCT008 BKN011 OVC046 26/25 A3016 RMK AO2 T02600251
KMQI 251800Z AUTO 15007KT 7SM RA SCT009 BKN046 OVC060 25/24 A3016 RMK AO2 T02480240
KMQI 251740Z AUTO 13007KT 4SM -RA SCT013 BKN030 OVC050 25/24 A3017 RMK AO2 P0006 T02460240
KMQI 251720Z AUTO 14007KT 5SM -RA SCT009 BKN024 OVC050 24/24 A3018 RMK AO2 P0004 T02430236
KMQI 251700Z AUTO 17007KT 5SM RA BKN007 BKN028 OVC037 25/24 A3020 RMK AO2 T02460237
KMQI 251640Z AUTO 13007KT 7SM BKN007 OVC011 25/24 A3020 RMK AO2 P0001 T02460237
KMQI 251620Z AUTO 12008KT 7SM RA SCT007 BKN011 OVC019 25/23 A3020 RMK AO2 P0001 T02480234
KMQI 251600Z AUTO 13008KT 10SM BKN019 BKN027 BKN034 27/23 A3020 RMK AO2 T02690228
KMQI 251540Z AUTO 13008KT 10SM SCT019 BKN065 28/23 A3020 RMK AO2 T02770230
KMQI 251520Z AUTO 13009KT 10SM SCT017 BKN044 OVC055 27/23 A3021 RMK AO2 T02670229
KMQI 251500Z AUTO 13011KT 10SM BKN013 BKN023 OVC060 27/23 A3021 RMK AO2 T02650232
KMQI 251440Z AUTO 13012KT 10SM BKN013 OVC024 27/24 A3021 RMK AO2 T02650235
KMQI 251410Z AUTO 11011KT 10SM BKN022 BKN029 OVC049 26/23 A3023 RMK AO2 T02640232
KMQI 251400Z AUTO 11005KT 10SM -RA BKN022 OVC030 25/23 A3022 RMK AO2 T02540227
KMQI 251340Z AUTO 11009KT 10SM SCT022 BKN029 OVC044 26/22 A3022 RMK AO2 T02560221
KMQI 251320Z AUTO 13007KT 10SM SCT024 BKN046 OVC050 25/23 A3023 RMK AO2 T02540225
KMQI 251300Z AUTO 12007KT 10SM SCT029 BKN042 BKN060 25/23 A3022 RMK AO2 T02500227
KMQI 251240Z AUTO 11010KT 10SM SCT043 BKN060 25/23 A3022 RMK AO2 T02500225
KMQI 251220Z AUTO 12004KT 10SM SCT021 BKN043 OVC060 25/23 A3021 RMK AO2 T02470229
KMQI 251200Z AUTO 14005KT 10SM SCT027 BKN043 BKN050 24/23 A3022 RMK AO2 T02430228
KMQI 251140Z AUTO 14008KT 10SM SCT021 BKN050 OVC070 24/23 A3021 RMK AO2 T02440226
KMQI 251120Z AUTO 15007KT 10SM SCT023 BKN047 OVC050 25/23 A3021 RMK AO2 T02450225
KMQI 251100Z AUTO 12006KT 10SM SCT016 SCT027 OVC060 25/22 A3021 RMK AO2 T02460223
KMQI 251040Z AUTO 08005KT 10SM SCT027 SCT035 BKN060 24/22 A3021 RMK AO2 T02400220
KMQI 251020Z AUTO 07004KT 10SM CLR 24/22 A3020 RMK AO2 T02350217
KMQI 251000Z AUTO 09005KT 10SM CLR 24/22 A3020 RMK AO2 T02350217
KMQI 250940Z AUTO 07005KT 10SM CLR 23/22 A3019 RMK AO2 T02340216
KMQI 250920Z AUTO 08004KT 10SM CLR 24/22 A3018 RMK AO2 T02400216
KMQI 250900Z AUTO 10004KT 10SM CLR 24/22 A3019 RMK AO2 T02410215
KMQI 250800Z AUTO 10006KT 10SM SCT029 24/22 A3019 RMK AO2 T02410217
KMQI 250740Z AUTO 09005KT 10SM SCT029 24/22 A3020 RMK AO2 T02410218
KMQI 250720Z AUTO 10004KT 10SM CLR 24/22 A3021 RMK AO2 T02400222
KMQI 250640Z AUTO 10004KT 10SM SCT030 24/22 A3021 RMK AO2 T02430224
KMQI 250620Z AUTO 08005KT 10SM SCT030 24/23 A3022 RMK AO2 T02410225
KMQI 250540Z AUTO 09004KT 10SM CLR 24/22 A3023 RMK AO2 T02400224
KMQI 250520Z AUTO 08004KT 10SM CLR 24/23 A3023 RMK AO2 T02410225
KMQI 250500Z AUTO 09004KT 10SM CLR 24/22 A3024 RMK AO2 T02420221
KMQI 250440Z AUTO 09004KT 10SM SCT027 SCT035 SCT042 24/22 A3024 RMK AO2 T02440221
KMQI 250420Z AUTO 08003KT 10SM SCT027 SCT033 24/22 A3024 RMK AO2 T02410220
KMQI 250400Z AUTO 09004KT 10SM SCT027 SCT033 25/22 A3025 RMK AO2 T02460221
KMQI 250340Z AUTO 08005KT 10SM CLR 25/22 A3025 RMK AO2 T02460221
KMQI 250320Z AUTO 10004KT 10SM CLR 25/22 A3025 RMK AO2 T02480221
KMQI 250300Z AUTO 12006KT 10SM CLR 25/22 A3024 RMK AO2 T02470220
KMQI 250240Z AUTO 10004KT 10SM CLR 25/22 A3024 RMK AO2 T02480221
KMQI 250220Z AUTO 12005KT 10SM CLR 25/22 A3024 RMK AO2 T02470222
KMQI 250200Z AUTO 09005KT 10SM CLR 25/22 A3023 RMK AO2 T02470223
KMQI 250140Z AUTO 10006KT 10SM SCT100 25/22 A3023 RMK AO2 T02500221
KMQI 250100Z AUTO 11005KT 10SM SCT028 BKN049 OVC100 25/22 A3022 RMK AO2 T02500221
KMQI 250040Z AUTO 00000KT 10SM SCT015 BKN028 OVC085 25/23 A3022 RMK AO2 T02450226
KMQI 250020Z AUTO 15003KT 10SM SCT015 BKN029 OVC110 25/23 A3022 RMK AO2 T02450225
KMQI 250000Z AUTO 10005KT 10SM SCT015 BKN028 OVC050 25/23 A3021 RMK AO2 T02500228
KMQI 242320Z AUTO 09005KT 10SM SCT031 OVC090 25/22 A3021 RMK AO2 T02520216
KMQI 242300Z AUTO 08005KT 10SM OVC080 25/21 A3021 RMK AO2 T02520212
KMQI 242240Z AUTO 10008KT 10SM OVC080 26/21 A3021 RMK AO2 T02550210
KMQI 242220Z AUTO 10007KT 10SM SCT031 OVC080 26/22 A3021 RMK AO2 T02550215
KMQI 242200Z AUTO 10008KT 10SM OVC080 26/22 A3020 RMK AO2 T02560220
KMQI 242140Z AUTO 09008KT 10SM OVC080 26/22 A3020 RMK AO2 T02570221
KMQI 242120Z AUTO 09009KT 10SM OVC080 26/22 A3019 RMK AO2 T02620221
KMQI 242100Z AUTO 09011G15KT 10SM OVC080 26/22 A3019 RMK AO2 T02630223
KMQI 242040Z AUTO 08009KT 10SM OVC080 26/23 A3020 RMK AO2 T02610225
KMQI 242020Z AUTO 09011KT 10SM BKN080 27/22 A3020 RMK AO2 T02670218
KMQI 242000Z AUTO 09010KT 10SM CLR 27/22 A3019 RMK AO2 T02680217
KMQI 241940Z AUTO 10012KT 10SM SCT090 27/21 A3020 RMK AO2 T02730210
KMQI 241920Z AUTO 09011KT 10SM BKN090 27/21 A3020 RMK AO2 T02690212
KMQI 241900Z AUTO 07010KT 10SM OVC090 27/21 A3021 RMK AO2 T02650213
KMQI 241840Z AUTO 09009KT 10SM BKN090 27/21 A3021 RMK AO2 T02710214
KMQI 241820Z AUTO 09009KT 10SM BKN090 27/22 A3022 RMK AO2 T02660216
KMQI 241800Z AUTO 08010KT 10SM CLR 27/22 A3023 RMK AO2 T02700221
KMQI 241720Z AUTO 07009KT 10SM CLR 27/22 A3024 RMK AO2 T02680220
KMQI 241700Z AUTO 07010KT 10SM CLR 27/22 A3024 RMK AO2 T02690217